Time;durP1;ratioP1;P1;durP2;ratioP2;P2;SDS_P1;SDS_P2;PMS_P1;PMS_P2;Temp;Humidity;BMP_temperature;BMP_pressure;BME280_temperature;BME280_humidity;BME280_pressure;Samples;Min_cycle;Max_cycle;Signal;HPM_P1;HPM_P2
2022/04/08 00:00:18;;;;;;;25.05;15.48;;;;;;;6.28;94.03;98109.09;4974274;28;20108;-65
2022/04/08 00:02:44;;;;;;;28.17;13.55;;;;;;;6.06;94.08;98089.06;4942595;28;20054;-67
2022/04/08 00:05:10;;;;;;;25.23;14.35;;;;;;;6.20;93.63;98106.41;4990586;28;20081;-67
2022/04/08 00:07:36;;;;;;;24.25;14.55;;;;;;;6.17;93.68;98106.72;4990228;28;20053;-67
2022/04/08 00:10:06;;;;;;;23.05;13.13;;;;;;;6.20;93.65;98111.75;4992114;28;20057;-66
2022/04/08 00:12:32;;;;;;;;;;;;;;;6.18;93.18;98097.66;4992413;28;20399;-66
2022/04/08 00:14:58;;;;;;;24.40;12.55;;;;;;;6.12;92.17;98091.09;4990436;28;20345;-66
2022/04/08 00:17:25;;;;;;;22.67;12.80;;;;;;;6.17;92.12;98101.34;4974400;28;20137;-66
2022/04/08 00:19:51;;;;;;;23.80;13.07;;;;;;;6.15;92.08;98108.72;4942063;28;20121;-66
2022/04/08 00:22:21;;;;;;;21.83;12.88;;;;;;;6.11;92.18;98104.69;4990893;28;20085;-65
2022/04/08 00:24:47;;;;;;;25.70;14.43;;;;;;;6.06;92.03;98099.78;4958616;28;20151;-66
2022/04/08 00:27:13;;;;;;;23.95;14.13;;;;;;;6.08;91.49;98100.47;4990183;28;20212;-66
2022/04/08 00:29:39;;;;;;;24.88;13.65;;;;;;;6.16;91.10;98110.41;4991837;28;20096;-66
2022/04/08 00:32:05;;;;;;;18.83;12.20;;;;;;;6.07;91.34;98111.34;4974039;28;20124;-66
2022/04/08 00:34:31;;;;;;;22.55;13.00;;;;;;;6.10;90.39;98111.03;4991788;28;20054;-68
2022/04/08 00:36:57;;;;;;;26.45;14.70;;;;;;;6.11;90.57;98107.38;4990264;28;20462;-68
2022/04/08 00:39:23;;;;;;;24.52;14.55;;;;;;;6.17;89.88;98112.06;4991169;28;20054;-66
2022/04/08 00:41:49;;;;;;;23.52;14.20;;;;;;;6.16;89.65;98115.78;4989815;28;20046;-68
2022/04/08 00:44:15;;;;;;;23.45;14.00;;;;;;;6.19;89.45;98110.09;4989762;28;20049;-68
2022/04/08 00:46:43;;;;;;;24.88;12.77;;;;;;;6.19;89.02;98110.94;4973604;28;20046;-66
2022/04/08 00:49:09;;;;;;;24.75;15.07;;;;;;;6.20;88.69;98106.41;4973590;28;20042;-67
2022/04/08 00:51:36;;;;;;;21.08;13.30;;;;;;;6.17;88.80;98112.06;4989793;28;20144;-67
2022/04/08 00:54:02;;;;;;;23.55;14.80;;;;;;;6.22;87.92;98107.09;4991179;28;20217;-65
2022/04/08 00:56:29;;;;;;;21.38;12.77;;;;;;;6.16;87.33;98094.31;4989651;28;20513;-66
2022/04/08 00:58:56;;;;;;;22.42;14.05;;;;;;;6.11;87.68;98085.91;4957245;28;20490;-66
2022/04/08 01:01:23;;;;;;;20.38;13.60;;;;;;;6.23;86.79;98108.75;4957398;28;20077;-66
2022/04/08 01:03:53;;;;;;;24.98;13.50;;;;;;;6.26;86.55;98116.50;4990892;28;20064;-65
2022/04/08 01:06:22;;;;;;;22.77;13.95;;;;;;;6.22;86.73;98112.44;4957161;28;20101;-65
2022/04/08 01:08:49;;;;;;;23.95;13.88;;;;;;;6.22;86.36;98099.88;4989563;28;20076;-65
2022/04/08 01:11:16;;;;;;;21.50;13.40;;;;;;;6.21;86.02;98091.97;4989403;28;20102;-65
2022/04/08 01:13:42;;;;;;;23.20;13.25;;;;;;;6.37;84.58;98096.56;4989291;28;20050;-66
2022/04/08 01:16:08;;;;;;;22.75;12.05;;;;;;;6.38;84.55;98104.44;4989384;28;20046;-66
2022/04/08 01:18:35;;;;;;;23.33;12.38;;;;;;;6.17;84.42;98079.88;5006094;28;20041;-66
2022/04/08 01:21:05;;;;;;;21.60;12.13;;;;;;;6.35;84.04;98099.41;5008883;28;20060;-66
2022/04/08 01:23:32;;;;;;;;;;;;;;;6.31;84.21;98108.78;5008850;28;20041;-66
2022/04/08 01:25:57;;;;;;;18.17;11.00;;;;;;;6.25;84.21;98099.56;5010070;28;20400;-66
2022/04/08 01:28:25;;;;;;;21.30;14.50;;;;;;;6.25;84.45;98109.41;5009841;28;20136;-66
2022/04/08 01:30:51;;;;;;;22.42;13.25;;;;;;;6.21;84.65;98102.69;4992395;28;20042;-67
2022/04/08 01:33:17;;;;;;;19.67;10.90;;;;;;;6.18;84.12;98113.75;4992150;28;20100;-66
2022/04/08 01:35:43;;;;;;;17.98;10.52;;;;;;;6.11;84.51;98102.84;5008723;28;20076;-67
2022/04/08 01:38:09;;;;;;;18.73;10.82;;;;;;;6.06;84.34;98094.41;5008532;28;20119;-66
2022/04/08 01:40:35;;;;;;;21.42;11.55;;;;;;;6.05;84.35;98100.78;4992312;28;20088;-66
2022/04/08 01:43:01;;;;;;;21.00;11.18;;;;;;;5.98;84.24;98081.81;5008535;28;20053;-65
2022/04/08 01:45:26;;;;;;;18.48;10.75;;;;;;;6.13;83.78;98100.00;5007565;28;20045;-66
2022/04/08 01:47:52;;;;;;;18.92;11.23;;;;;;;6.03;83.34;98090.25;5010376;28;20080;-66
2022/04/08 01:50:20;;;;;;;18.25;10.88;;;;;;;6.21;83.13;98113.44;4991790;28;20042;-65
2022/04/08 01:52:47;;;;;;;20.95;10.27;;;;;;;6.13;83.60;98106.19;5008582;28;20383;-66
2022/04/08 01:55:13;;;;;;;19.30;11.50;;;;;;;6.14;82.93;98112.41;4975952;28;20188;-67
2022/04/08 01:57:40;;;;;;;18.25;10.45;;;;;;;6.11;83.08;98102.00;4992435;28;20136;-65
2022/04/08 02:00:08;;;;;;;19.48;10.27;;;;;;;6.04;83.25;98102.66;4976455;28;20133;-65
2022/04/08 02:02:38;;;;;;;16.13;9.18;;;;;;;6.04;82.85;98102.66;4992881;28;20191;-66
2022/04/08 02:05:05;;;;;;;25.73;9.85;;;;;;;5.99;83.07;98107.63;5010509;28;20054;-66
2022/04/08 02:07:30;;;;;;;16.90;10.00;;;;;;;6.01;83.05;98102.97;4960645;28;20061;-66
2022/04/08 02:09:56;;;;;;;17.08;9.60;;;;;;;5.95;83.23;98100.91;5010388;28;20046;-66
2022/04/08 02:12:22;;;;;;;15.43;9.20;;;;;;;5.81;83.05;98077.34;4992372;28;20525;-66
2022/04/08 02:14:48;;;;;;;20.23;9.75;;;;;;;5.86;83.04;98091.13;5010305;28;20046;-64
2022/04/08 02:17:14;;;;;;;18.75;9.15;;;;;;;5.91;83.19;98106.72;5013684;28;20049;-65
2022/04/08 02:19:39;;;;;;;19.25;10.57;;;;;;;5.89;83.11;98112.25;4995904;28;20092;-64
2022/04/08 02:22:06;;;;;;;18.48;9.52;;;;;;;5.88;82.56;98107.88;5013140;28;20046;-65
2022/04/08 02:24:32;;;;;;;15.82;8.20;;;;;;;5.88;82.59;98107.88;5011855;28;20418;-66
2022/04/08 02:26:57;;;;;;;17.60;9.60;;;;;;;5.77;82.50;98084.03;5012223;28;20049;-67
2022/04/08 02:29:23;;;;;;;14.27;8.00;;;;;;;5.86;82.42;98101.84;5011970;28;20054;-67
2022/04/08 02:31:49;;;;;;;17.73;8.43;;;;;;;5.93;81.46;98100.25;4995672;28;20486;-66
2022/04/08 02:34:15;;;;;;;17.40;8.73;;;;;;;5.86;81.59;98088.44;5011683;28;20505;-67
2022/04/08 02:36:41;;;;;;;15.32;7.93;;;;;;;5.89;81.16;98106.91;4995104;28;20046;-65
2022/04/08 02:39:07;;;;;;;18.90;8.98;;;;;;;5.86;81.42;98104.53;5011653;28;20045;-66
2022/04/08 02:41:33;;;;;;;18.02;8.23;;;;;;;5.91;80.88;98102.19;5012976;28;20130;-66
2022/04/08 02:43:59;;;;;;;17.15;8.65;;;;;;;5.96;80.34;98113.34;5011535;28;20547;-66
2022/04/08 02:46:25;;;;;;;16.35;8.07;;;;;;;5.89;80.83;98104.22;4995053;28;20041;-69
2022/04/08 02:48:51;;;;;;;13.35;7.70;;;;;;;5.97;80.07;98104.28;5011453;28;20042;-66
2022/04/08 02:51:17;;;;;;;16.25;7.65;;;;;;;6.07;79.54;98106.00;4995002;28;20086;-64
2022/04/08 02:53:42;;;;;;;14.70;7.75;;;;;;;6.09;78.71;98101.31;5010967;28;20054;-67
2022/04/08 02:56:08;;;;;;;16.30;8.52;;;;;;;6.17;78.06;98117.44;5011512;28;20037;-66
2022/04/08 02:58:35;;;;;;;14.70;7.60;;;;;;;6.18;78.38;98119.13;4994950;28;20046;-66
2022/04/08 03:01:01;;;;;;;16.75;7.70;;;;;;;6.19;78.12;98118.13;5011251;28;20140;-68
2022/04/08 03:03:28;;;;;;;15.00;8.55;;;;;;;6.14;77.83;98110.53;4994748;28;20192;-66
2022/04/08 03:05:54;;;;;;;16.05;7.57;;;;;;;6.23;77.02;98123.00;5011370;28;20382;-68
2022/04/08 03:08:20;;;;;;;13.93;7.40;;;;;;;6.24;77.25;98123.84;5011290;28;20140;-67
2022/04/08 03:10:46;;;;;;;14.45;7.63;;;;;;;6.27;76.87;98123.53;5011564;28;20050;-68
2022/04/08 03:13:12;;;;;;;16.23;7.03;;;;;;;6.16;76.85;98105.03;5011361;28;20188;-67
2022/04/08 03:15:39;;;;;;;13.73;7.05;;;;;;;6.29;76.34;98121.53;4994776;28;20045;-67
2022/04/08 03:18:05;;;;;;;12.45;7.07;;;;;;;6.11;76.65;98102.00;4978405;28;20145;-67
2022/04/08 03:20:32;;;;;;;15.65;6.68;;;;;;;6.26;76.20;98116.50;5010758;28;20135;-66
2022/04/08 03:22:58;;;;;;;13.68;6.32;;;;;;;6.16;76.43;98113.09;5010437;28;20123;-66
2022/04/08 03:25:23;;;;;;;14.27;6.78;;;;;;;6.20;76.17;98117.97;4994321;28;20049;-68
2022/04/08 03:27:49;;;;;;;15.30;7.13;;;;;;;6.18;76.33;98119.13;4978158;28;20057;-67
2022/04/08 03:30:15;;;;;;;13.27;6.70;;;;;;;6.20;76.08;98126.00;4977990;28;20457;-68
2022/04/08 03:32:41;;;;;;;15.70;7.32;;;;;;;6.14;76.39;98117.75;4978288;28;20057;-67
2022/04/08 03:35:07;;;;;;;13.57;6.78;;;;;;;6.20;75.95;98128.69;4994322;28;20197;-68
2022/04/08 03:37:33;;;;;;;13.50;6.65;;;;;;;6.24;75.49;98134.59;4978255;28;20215;-67
2022/04/08 03:39:59;;;;;;;14.55;6.40;;;;;;;6.23;75.77;98128.38;5010854;28;20038;-68
2022/04/08 03:42:25;;;;;;;13.00;6.57;;;;;;;6.30;75.17;98120.53;4962305;28;20097;-67
2022/04/08 03:44:51;;;;;;;14.52;7.07;;;;;;;6.41;74.61;98120.22;4994691;28;20049;-68
2022/04/08 03:47:19;;;;;;;13.30;6.45;;;;;;;6.60;73.28;98120.97;4961794;28;20434;-68
2022/04/08 03:49:45;;;;;;;12.60;5.95;;;;;;;6.75;72.78;98122.00;4994833;28;20494;-68
2022/04/08 03:52:11;;;;;;;12.70;6.10;;;;;;;6.84;72.04;98126.41;4994098;28;20188;-67
2022/04/08 03:54:37;;;;;;;14.30;7.28;;;;;;;6.91;71.22;98135.47;5011483;28;20058;-66
2022/04/08 03:57:03;;;;;;;12.70;6.45;;;;;;;6.97;71.25;98134.78;4993377;28;20038;-68
2022/04/08 03:59:29;;;;;;;10.90;5.70;;;;;;;6.99;71.01;98135.47;4977348;28;20188;-68
2022/04/08 04:01:54;;;;;;;13.60;5.93;;;;;;;7.03;70.29;98127.09;4993543;28;20038;-66
2022/04/08 04:04:20;;;;;;;12.45;5.78;;;;;;;6.99;70.40;98132.78;4993688;28;20567;-68
2022/04/08 04:06:46;;;;;;;14.00;6.30;;;;;;;7.07;70.30;98131.13;5010875;28;20126;-68
2022/04/08 04:09:12;;;;;;;15.63;6.45;;;;;;;7.17;69.40;98132.66;4993669;28;20136;-69
2022/04/08 04:11:38;;;;;;;11.15;5.88;;;;;;;7.23;69.07;98125.75;4976939;28;20103;-68
2022/04/08 04:14:04;;;;;;;12.95;6.03;;;;;;;7.26;68.88;98133.47;4961208;28;20100;-67
2022/04/08 04:16:29;;;;;;;11.02;5.80;;;;;;;7.30;68.73;98126.75;4992986;28;20413;-67
2022/04/08 04:18:55;;;;;;;12.60;5.70;;;;;;;7.37;68.53;98148.44;4976989;28;20513;-67
2022/04/08 04:21:21;;;;;;;14.88;6.10;;;;;;;7.43;67.58;98137.84;4960888;28;20045;-68
2022/04/08 04:23:47;;;;;;;12.90;6.15;;;;;;;7.36;67.68;98118.03;4960566;28;20494;-68
2022/04/08 04:26:13;;;;;;;13.45;5.93;;;;;;;7.52;67.12;98129.78;4960878;28;20049;-69
2022/04/08 04:28:38;;;;;;;15.65;5.80;;;;;;;7.55;66.86;98134.81;4976422;28;20049;-69
2022/04/08 04:31:06;;;;;;;12.40;5.40;;;;;;;7.56;66.83;98115.81;4992800;28;20123;-67
2022/04/08 04:33:32;;;;;;;12.23;5.60;;;;;;;7.61;66.67;98140.38;5009140;28;20044;-68
2022/04/08 04:35:58;;;;;;;12.55;5.90;;;;;;;7.64;66.54;98136.47;4992581;28;20490;-67
2022/04/08 04:38:24;;;;;;;12.77;5.65;;;;;;;7.66;65.75;98137.16;5008766;28;20148;-68
2022/04/08 04:40:50;;;;;;;12.23;5.45;;;;;;;7.69;66.20;98140.34;5009805;28;20126;-67
2022/04/08 04:43:16;;;;;;;12.80;4.95;;;;;;;7.71;66.07;98140.16;4992977;28;20050;-68
2022/04/08 04:45:43;;;;;;;11.40;5.50;;;;;;;7.61;65.95;98128.78;4976299;28;20518;-68
2022/04/08 04:48:12;;;;;;;11.35;5.97;;;;;;;7.68;65.88;98127.06;4992578;28;20054;-68
2022/04/08 04:50:39;;;;;;;11.35;5.68;;;;;;;7.73;66.06;98140.84;4992935;28;20053;-67
2022/04/08 04:53:05;;;;;;;13.93;5.80;;;;;;;7.76;65.43;98136.97;4976288;28;20057;-67
2022/04/08 04:55:31;;;;;;;14.13;5.38;;;;;;;7.80;65.05;98123.00;4976650;28;20072;-68
2022/04/08 04:57:57;;;;;;;12.32;5.70;;;;;;;7.84;64.94;98145.88;4967892;28;20038;-69
2022/04/08 05:00:23;;;;;;;12.88;5.80;;;;;;;7.86;64.66;98135.78;4967646;28;20164;-74
2022/04/08 05:02:49;;;;;;;10.77;5.07;;;;;;;7.94;64.43;98135.75;4973339;28;20048;-79
2022/04/08 05:05:15;;;;;;;12.98;5.90;;;;;;;8.01;64.12;98137.75;4978234;28;20054;-70
2022/04/08 05:07:41;;;;;;;11.02;5.13;;;;;;;8.05;64.09;98125.66;4958655;28;20045;-68
2022/04/08 05:10:08;;;;;;;12.05;5.28;;;;;;;8.14;63.45;98121.91;4953557;28;20062;-69
2022/04/08 05:12:35;;;;;;;14.65;5.15;;;;;;;8.19;63.38;98127.59;4980146;28;20377;-69
2022/04/08 05:15:09;;;;;;;12.75;4.88;;;;;;;8.26;63.12;98117.81;4965142;28;20196;-69
2022/04/08 05:17:38;;;;;;;12.98;5.25;;;;;;;8.37;62.65;98130.06;4940434;28;20054;-67
2022/04/08 05:20:05;;;;;;;10.25;4.47;;;;;;;8.28;62.47;98099.66;4970293;28;20053;-66
2022/04/08 05:22:33;;;;;;;11.32;4.93;;;;;;;8.48;62.27;98132.41;4956257;28;20051;-70
2022/04/08 05:24:59;;;;;;;10.48;4.90;;;;;;;8.58;61.84;98126.81;4960594;28;20053;-69
2022/04/08 05:27:26;;;;;;;10.88;4.70;;;;;;;8.59;61.46;98134.72;4954779;28;20054;-68
2022/04/08 05:29:52;;;;;;;12.18;5.13;;;;;;;8.68;61.30;98128.25;4968200;28;20208;-67
2022/04/08 05:32:18;;;;;;;11.73;6.43;;;;;;;8.95;60.14;98126.06;4961429;28;20538;-66
2022/04/08 05:34:44;;;;;;;11.82;5.65;;;;;;;9.62;57.37;98084.94;4953254;28;20107;-68
2022/04/08 05:37:12;;;;;;;12.23;5.60;;;;;;;10.26;55.98;98117.66;4955636;28;20124;-71
2022/04/08 05:39:38;;;;;;;13.45;4.43;;;;;;;10.62;54.76;98122.28;4971136;28;20439;-69
2022/04/08 05:42:05;;;;;;;11.45;5.50;;;;;;;10.79;53.82;98112.94;4969103;28;20136;-68
2022/04/08 05:44:31;;;;;;;14.05;6.40;;;;;;;10.68;53.64;98121.53;4953783;28;20034;-67
2022/04/08 05:46:57;;;;;;;15.95;5.30;;;;;;;10.80;53.61;98119.16;4987522;28;20042;-66
2022/04/08 05:49:23;;;;;;;15.57;5.85;;;;;;;10.72;53.51;98122.81;4970843;28;20042;-65
2022/04/08 05:51:49;;;;;;;15.90;5.65;;;;;;;10.76;53.50;98109.78;4959468;28;20057;-68
2022/04/08 05:54:14;;;;;;;11.48;5.07;;;;;;;10.98;53.00;98116.03;4953475;28;20434;-69
2022/04/08 05:56:40;;;;;;;13.00;5.95;;;;;;;11.29;51.90;98111.13;4946959;28;20065;-68
2022/04/08 05:59:06;;;;;;;11.45;5.50;;;;;;;11.75;50.28;98113.41;4933528;28;20038;-68
2022/04/08 06:01:32;;;;;;;10.20;5.38;;;;;;;12.11;49.24;98107.03;4974630;28;20077;-68
2022/04/08 06:03:58;;;;;;;21.08;6.05;;;;;;;12.27;48.99;98114.84;4956462;28;20046;-68
2022/04/08 06:06:24;;;;;;;12.70;5.55;;;;;;;12.73;47.63;98119.66;4940951;28;20039;-68
2022/04/08 06:08:49;;;;;;;15.30;4.88;;;;;;;12.53;47.51;98113.28;5003813;28;20470;-66
2022/04/08 06:11:15;;;;;;;14.00;6.40;;;;;;;12.81;46.72;98117.78;4958959;28;20042;-68
2022/04/08 06:13:41;;;;;;;12.98;5.60;;;;;;;12.84;46.83;98123.66;4941875;28;20046;-70
2022/04/08 06:16:07;;;;;;;13.35;5.40;;;;;;;12.43;47.57;98118.25;4957721;28;20186;-68
2022/04/08 06:18:33;;;;;;;13.43;5.72;;;;;;;12.21;48.34;98139.16;4956949;28;20083;-67
2022/04/08 06:21:01;;;;;;;11.23;5.80;;;;;;;12.00;48.57;98121.13;4972332;28;20051;-68
2022/04/08 06:23:27;;;;;;;12.93;5.85;;;;;;;12.08;48.36;98123.69;4957391;28;20039;-66
2022/04/08 06:25:53;;;;;;;12.50;6.18;;;;;;;12.08;48.78;98118.25;4974415;28;20552;-69
2022/04/08 06:28:19;;;;;;;14.52;5.97;;;;;;;12.01;48.50;98123.63;4956775;28;20047;-69
2022/04/08 06:30:45;;;;;;;14.15;5.85;;;;;;;12.07;48.02;98122.03;4990831;28;20078;-70
2022/04/08 06:33:11;;;;;;;13.45;5.15;;;;;;;12.08;48.44;98120.97;4955913;28;20077;-70
2022/04/08 06:35:37;;;;;;;12.20;5.90;;;;;;;12.06;48.00;98131.16;4958760;28;20042;-69
2022/04/08 06:38:06;;;;;;;13.70;5.78;;;;;;;11.86;48.37;98119.38;4920848;28;20486;-72
2022/04/08 06:40:41;;;;;;;13.55;6.25;;;;;;;11.70;49.33;98121.31;4993679;28;20057;-71
2022/04/08 06:43:08;;;;;;;13.95;5.88;;;;;;;11.48;49.78;98106.97;4942276;28;20042;-69
2022/04/08 06:45:34;;;;;;;12.43;5.53;;;;;;;11.39;50.11;98121.66;4941734;28;20105;-70
2022/04/08 06:48:00;;;;;;;12.57;5.72;;;;;;;11.51;50.03;98111.13;4954303;28;20039;-69
2022/04/08 06:50:26;;;;;;;12.10;6.00;;;;;;;11.65;49.60;98118.34;4989875;28;20062;-69
2022/04/08 06:52:55;;;;;;;13.18;5.45;;;;;;;11.94;49.29;98120.03;4956172;28;20050;-68
2022/04/08 06:55:22;;;;;;;12.77;5.55;;;;;;;12.09;48.58;98122.63;4973876;28;20086;-68
2022/04/08 06:57:47;;;;;;;14.02;6.53;;;;;;;11.86;48.80;98113.94;4972205;28;20046;-68
2022/04/08 07:00:14;;;;;;;14.48;5.50;;;;;;;12.08;48.67;98118.25;4942272;28;20582;-73
2022/04/08 07:02:40;;;;;;;13.95;6.18;;;;;;;12.15;48.33;98111.03;4989361;28;20141;-71
2022/04/08 07:05:07;;;;;;;15.70;6.07;;;;;;;12.05;48.50;98121.38;4974113;28;20193;-70
2022/04/08 07:07:34;;;;;;;18.88;6.43;;;;;;;12.14;48.43;98122.03;4974180;28;20121;-71
2022/04/08 07:10:00;;;;;;;11.05;5.63;;;;;;;12.22;48.22;98120.03;4989837;28;20038;-68
2022/04/08 07:12:27;;;;;;;15.50;6.40;;;;;;;12.02;48.12;98124.47;4973580;28;20054;-68
2022/04/08 07:14:53;;;;;;;12.63;5.75;;;;;;;11.88;48.24;98092.91;4989058;28;20053;-69
2022/04/08 07:17:30;;;;;;;13.15;5.75;;;;;;;11.96;47.92;98120.69;4955847;28;20042;-67
2022/04/08 07:19:57;;;;;;;16.15;6.43;;;;;;;11.89;48.07;98116.28;4972952;28;20043;-69
2022/04/08 07:22:23;;;;;;;15.05;6.25;;;;;;;11.99;48.01;98124.84;4989779;28;20494;-70
2022/04/08 07:24:50;;;;;;;15.52;6.07;;;;;;;11.99;47.80;98124.84;4956456;28;20108;-69
2022/04/08 07:27:17;;;;;;;12.60;4.70;;;;;;;12.20;47.40;98122.09;4972986;28;20513;-70
2022/04/08 07:29:43;;;;;;;15.18;6.53;;;;;;;12.14;47.25;98122.03;4972899;28;20050;-68
2022/04/08 07:32:09;;;;;;;13.93;6.40;;;;;;;12.33;46.99;98131.34;5005831;28;20150;-70
2022/04/08 07:34:36;;;;;;;16.52;6.93;;;;;;;12.17;47.52;98127.06;4954588;28;20057;-69
2022/04/08 07:37:03;;;;;;;18.98;6.75;;;;;;;12.13;47.88;98126.63;4941327;28;20120;-69
2022/04/08 07:39:29;;;;;;;18.42;6.35;;;;;;;12.15;47.32;98119.16;4988868;28;20053;-67
2022/04/08 07:41:55;;;;;;;17.83;7.15;;;;;;;12.00;48.12;98126.56;4939903;28;20514;-68
2022/04/08 07:44:20;;;;;;;13.82;5.65;;;;;;;12.25;47.51;98129.63;4988413;28;20062;-69
2022/04/08 07:46:46;;;;;;;14.98;6.03;;;;;;;12.42;47.12;98130.13;5005353;28;20053;-67
2022/04/08 07:49:12;;;;;;;14.80;6.25;;;;;;;12.50;46.83;98122.66;5004218;28;20087;-68
2022/04/08 07:51:38;;;;;;;17.33;6.45;;;;;;;12.57;46.16;98127.28;4956879;28;20050;-67
2022/04/08 07:54:04;;;;;;;10.93;5.20;;;;;;;12.77;46.07;98122.78;4954396;28;20062;-70
2022/04/08 07:56:33;;;;;;;18.67;6.93;;;;;;;12.90;45.77;98130.94;4940316;28;20041;-69
2022/04/08 07:58:59;;;;;;;14.23;6.72;;;;;;;13.09;44.91;98121.22;4955962;28;20070;-67
2022/04/08 08:01:25;;;;;;;15.88;5.30;;;;;;;13.69;44.48;98124.88;4958306;28;20484;-68
2022/04/08 08:03:51;;;;;;;19.75;6.82;;;;;;;13.73;43.87;98123.41;4956237;28;20049;-69
2022/04/08 08:06:17;;;;;;;16.80;6.90;;;;;;;13.87;43.14;98120.69;4972683;28;20364;-71
2022/04/08 08:08:44;;;;;;;12.18;6.47;;;;;;;13.70;43.08;98129.25;4953860;28;20112;-74
2022/04/08 08:11:12;;;;;;;13.27;6.05;;;;;;;13.88;42.96;98125.06;4954863;28;20165;-71
2022/04/08 08:13:39;;;;;;;14.00;6.53;;;;;;;13.65;43.23;98115.47;4984273;28;20051;-70
2022/04/08 08:16:07;;;;;;;18.50;5.85;;;;;;;13.69;43.30;98089.56;4969569;28;20160;-70
2022/04/08 08:18:34;;;;;;;13.93;7.20;;;;;;;13.58;43.53;98122.78;4969766;28;20050;-70
2022/04/08 08:21:00;;;;;;;14.55;6.68;;;;;;;13.67;43.14;98118.81;4972164;28;20195;-70
2022/04/08 08:23:27;;;;;;;18.02;7.60;;;;;;;13.70;43.55;98117.56;4972146;28;20061;-70
2022/04/08 08:25:55;;;;;;;17.35;7.82;;;;;;;13.48;43.29;98114.22;4955321;28;20165;-70
2022/04/08 08:28:24;;;;;;;15.75;6.57;;;;;;;13.80;42.99;98107.13;4970952;28;20043;-69
2022/04/08 08:30:50;;;;;;;15.63;7.53;;;;;;;13.54;43.00;98102.53;4954542;28;20422;-60
2022/04/08 08:33:19;;;;;;;15.50;6.63;;;;;;;13.71;42.61;98097.50;4968976;28;20767;-61
2022/04/08 08:35:45;;;;;;;15.30;8.35;;;;;;;13.63;42.81;98103.97;4988299;28;20127;-60
2022/04/08 08:38:11;;;;;;;15.20;7.38;;;;;;;14.07;42.23;98097.03;4989073;28;20086;-63
2022/04/08 08:40:37;;;;;;;13.48;6.43;;;;;;;14.04;42.12;98113.78;4987875;28;20061;-63
2022/04/08 08:43:03;;;;;;;15.70;8.02;;;;;;;13.87;41.68;98097.06;4987054;28;20504;-63
2022/04/08 08:45:32;;;;;;;17.80;8.07;;;;;;;13.68;42.11;98098.78;4987980;28;20132;-62
2022/04/08 08:48:02;;;;;;;14.68;7.00;;;;;;;13.67;41.77;98069.91;4988209;28;20134;-64
2022/04/08 08:50:30;;;;;;;16.90;7.53;;;;;;;13.50;42.13;98104.00;4989533;28;20047;-63
2022/04/08 08:52:57;;;;;;;16.75;7.15;;;;;;;13.61;42.12;98092.50;4988227;28;20050;-62
2022/04/08 08:55:24;;;;;;;14.68;6.97;;;;;;;13.63;41.37;98063.25;4986839;28;20398;-63
2022/04/08 08:57:51;;;;;;;18.70;7.43;;;;;;;13.90;41.38;98082.25;4986683;28;20057;-62
2022/04/08 09:00:20;;;;;;;13.63;6.95;;;;;;;13.34;41.93;98085.38;4986864;28;20176;-62
2022/04/08 09:02:50;;;;;;;15.73;8.13;;;;;;;13.33;42.30;98084.53;4985658;28;20120;-62
2022/04/08 09:05:23;;;;;;;14.98;7.20;;;;;;;13.61;41.70;98078.94;4985992;28;20136;-61
2022/04/08 09:08:08;;;;;;;15.93;7.47;;;;;;;13.67;41.04;98080.78;4985771;28;20082;-63
2022/04/08 09:10:36;;;;;;;16.98;7.15;;;;;;;13.41;42.02;98069.94;4985395;28;20155;-67
2022/04/08 09:13:05;;;;;;;12.50;5.78;;;;;;;13.45;42.04;98061.16;4964890;28;20086;-65
2022/04/08 09:15:34;;;;;;;;;;;;;;;13.50;41.99;98068.69;4939341;28;20473;-63
2022/04/08 09:18:10;;;;;;;15.18;7.20;;;;;;;13.50;41.60;98064.09;4971725;28;19921;-68
2022/04/08 09:20:38;;;;;;;15.80;6.80;;;;;;;13.86;41.81;98062.81;4974705;28;20091;-68
2022/04/08 09:23:06;;;;;;;17.70;6.38;;;;;;;14.10;41.33;98055.84;4953483;28;20396;-69
2022/04/08 09:25:32;;;;;;;16.20;7.63;;;;;;;13.99;40.90;98059.22;4970863;28;20050;-68
2022/04/08 09:28:15;;;;;;;15.38;7.25;;;;;;;13.86;40.98;98062.00;4924104;28;20100;-70
2022/04/08 09:30:47;;;;;;;13.90;6.70;;;;;;;13.92;40.80;98061.13;4937659;28;20042;-71
2022/04/08 09:33:18;;;;;;;14.82;7.28;;;;;;;13.47;40.61;98064.50;4970640;28;20056;-70
2022/04/08 09:35:45;;;;;;;16.70;7.60;;;;;;;13.43;40.89;98062.44;4958704;28;20091;-69
2022/04/08 09:38:11;;;;;;;12.02;5.70;;;;;;;13.82;40.87;98068.88;4940289;28;20137;-69
2022/04/08 09:40:39;;;;;;;14.27;6.63;;;;;;;13.85;40.39;98077.44;4974017;28;20137;-67
2022/04/08 09:43:05;;;;;;;17.85;6.57;;;;;;;13.97;40.12;98055.91;4953232;28;20042;-71
2022/04/08 09:45:32;;;;;;;13.88;5.43;;;;;;;14.01;40.45;98059.88;4958529;28;20605;-72
2022/04/08 09:47:59;;;;;;;13.10;5.45;;;;;;;13.99;39.99;98056.50;4935283;28;20527;-70
2022/04/08 09:50:26;;;;;;;15.18;6.00;;;;;;;13.90;40.26;98060.50;4957776;28;20058;-68
2022/04/08 09:52:53;;;;;;;15.70;6.80;;;;;;;13.66;40.82;98051.97;4992860;28;20506;-69
2022/04/08 09:55:20;;;;;;;16.50;6.78;;;;;;;13.46;41.18;98057.41;4949417;28;20043;-68
2022/04/08 09:57:46;;;;;;;16.08;6.80;;;;;;;13.53;41.41;98057.41;4970154;28;20054;-67
2022/04/08 10:00:12;;;;;;;17.27;6.05;;;;;;;13.59;41.86;98066.59;4970990;28;20125;-68
2022/04/08 10:02:46;;;;;;;15.70;5.75;;;;;;;13.57;42.16;98058.66;4969757;28;20100;-67
2022/04/08 10:05:12;;;;;;;16.45;6.90;;;;;;;13.40;42.81;98049.28;4954208;28;20046;-68
2022/04/08 10:07:39;;;;;;;16.13;6.53;;;;;;;13.52;42.49;98053.00;4967216;28;20078;-69
2022/04/08 10:10:13;;;;;;;14.60;5.93;;;;;;;14.01;41.78;98043.56;4970794;28;20081;-68
2022/04/08 10:12:47;;;;;;;14.32;6.00;;;;;;;14.47;40.97;98056.16;4970192;28;20065;-68
2022/04/08 10:15:37;;;;;;;14.30;6.63;;;;;;;15.28;39.08;98062.84;4971028;28;20059;-68
2022/04/08 10:18:04;;;;;;;14.80;8.23;;;;;;;14.82;39.47;98050.38;4985870;28;20050;-68
2022/04/08 10:20:31;;;;;;;19.50;7.93;;;;;;;15.23;38.86;98051.78;4970640;28;20050;-68
2022/04/08 10:23:33;;;;;;;18.95;7.72;;;;;;;16.12;37.75;98026.91;4969165;28;20060;-69
2022/04/08 10:25:59;;;;;;;15.00;6.90;;;;;;;17.20;35.81;98074.44;4986939;28;20065;-69
2022/04/08 10:28:34;;;;;;;15.27;7.50;;;;;;;16.54;36.73;98048.84;4970040;28;20145;-68
2022/04/08 10:31:00;;;;;;;16.83;8.32;;;;;;;16.53;36.77;98036.28;4985367;28;20043;-68
2022/04/08 10:33:28;;;;;;;17.70;8.40;;;;;;;16.19;37.82;98045.06;4968715;28;20124;-67
2022/04/08 10:35:56;;;;;;;18.83;8.02;;;;;;;15.85;38.52;98025.53;4957509;28;20593;-68
2022/04/08 10:38:22;;;;;;;19.98;9.23;;;;;;;15.69;39.20;98058.81;4972316;28;20047;-68
2022/04/08 10:40:58;;;;;;;17.90;8.07;;;;;;;16.21;38.50;98051.16;4989858;28;20128;-68
2022/04/08 10:43:25;;;;;;;;;;;;;;;16.22;39.12;98047.34;4988916;28;20062;-68
2022/04/08 10:45:55;;;;;;;17.77;8.25;;;;;;;17.16;36.91;98062.31;4989813;28;19968;-68
2022/04/08 10:48:23;;;;;;;23.05;8.90;;;;;;;17.00;37.08;98052.03;4972499;28;20466;-67
2022/04/08 10:50:50;;;;;;;19.60;8.32;;;;;;;16.89;37.16;98056.41;4988922;28;20120;-68
2022/04/08 10:53:21;;;;;;;18.90;8.95;;;;;;;15.92;39.12;98039.91;4972683;28;20145;-68
2022/04/08 10:55:53;;;;;;;14.65;7.45;;;;;;;15.63;40.22;98058.59;4986635;28;20410;-68
2022/04/08 10:58:37;;;;;;;14.77;8.60;;;;;;;16.64;38.48;98043.69;4940972;28;20058;-70
2022/04/08 11:01:19;;;;;;;17.55;9.68;;;;;;;16.41;38.88;98059.91;4974190;28;20050;-69
2022/04/08 11:04:03;;;;;;;12.50;7.35;;;;;;;17.28;37.99;98044.06;4988812;28;20046;-70
2022/04/08 11:06:31;;;;;;;21.25;9.25;;;;;;;17.81;37.13;98032.28;4991735;28;20065;-70
2022/04/08 11:09:05;;;;;;;15.38;9.93;;;;;;;17.64;38.00;98031.28;4937930;28;20050;-69
2022/04/08 11:11:33;;;;;;;16.85;9.57;;;;;;;16.92;39.27;98028.63;4989656;28;20046;-69
2022/04/08 11:14:00;;;;;;;15.27;9.18;;;;;;;17.13;39.11;98051.03;4971911;28;20093;-69
2022/04/08 11:16:32;;;;;;;15.90;8.60;;;;;;;17.43;39.15;98019.03;4991531;28;20414;-66
2022/04/08 11:18:58;;;;;;;19.98;9.85;;;;;;;16.96;40.72;98035.28;4972699;28;20046;-67
2022/04/08 11:21:24;;;;;;;18.88;9.55;;;;;;;16.80;41.04;98017.69;4989365;28;20072;-67
2022/04/08 11:24:01;;;;;;;19.60;10.63;;;;;;;16.45;41.74;98006.56;4988641;28;20201;-67
2022/04/08 11:26:29;;;;;;;17.80;10.23;;;;;;;15.84;43.57;98032.88;4956813;28;20082;-66
2022/04/08 11:29:10;;;;;;;16.52;9.93;;;;;;;16.29;42.79;98015.38;4954591;28;20059;-68